Time;durP1;ratioP1;P1;durP2;ratioP2;P2;SDS_P1;SDS_P2;PMS_P1;PMS_P2;Temp;Humidity;BMP_temperature;BMP_pressure;BME280_temperature;BME280_humidity;BME280_pressure;Samples;Min_cycle;Max_cycle;Signal;HPM_P1;HPM_P2
2021/07/16 00:00:40;;;;;;;1.6;0.8;;;;;;;14.31;97.18262;938.5943;;;;
2021/07/16 00:03:05;;;;;;;4.7;2;;;;;;;14.26;96.76953;938.5801;;;;
2021/07/16 00:05:32;;;;;;;2.1;1.4;;;;;;;14.29;96.0957;938.5776;;;;
2021/07/16 00:07:57;;;;;;;1.2;0.9;;;;;;;14.27;96.18555;938.6266;;;;
2021/07/16 00:10:23;;;;;;;1.3;0.8;;;;;;;14.3;95.87891;938.5543;;;;
2021/07/16 00:12:48;;;;;;;1;0.8;;;;;;;14.29;96.78711;938.5928;;;;
2021/07/16 00:15:20;;;;;;;1.4;1.1;;;;;;;14.23;96.86523;938.6091;;;;
2021/07/16 00:17:45;;;;;;;2.9;1.6;;;;;;;14.19;96.13184;938.584;;;;
2021/07/16 00:20:13;;;;;;;4.3;1.6;;;;;;;14.11;95.54785;938.5549;;;;
2021/07/16 00:22:38;;;;;;;3.5;1.3;;;;;;;14.05;95.86914;938.5358;;;;
2021/07/16 00:25:09;;;;;;;2;1;;;;;;;14.09;96.13281;938.5325;;;;
2021/07/16 00:27:38;;;;;;;2.6;1.1;;;;;;;14.05;96.18066;938.4709;;;;
2021/07/16 00:30:03;;;;;;;1.7;1.2;;;;;;;14.04;95.92676;938.5422;;;;
2021/07/16 00:32:31;;;;;;;3.6;1.4;;;;;;;13.97;96.61328;938.5325;;;;
2021/07/16 00:34:56;;;;;;;2.9;1.4;;;;;;;14.01;96.54004;938.5508;;;;
2021/07/16 00:37:25;;;;;;;5.4;2.1;;;;;;;13.93;95.82031;938.5295;;;;
2021/07/16 00:39:50;;;;;;;3.2;1.6;;;;;;;13.95;95.64063;938.6183;;;;
2021/07/16 00:42:16;;;;;;;2.8;1.5;;;;;;;13.96;95.74609;938.5518;;;;
2021/07/16 00:44:42;;;;;;;3.2;1.1;;;;;;;13.96;96.28711;938.6047;;;;
2021/07/16 00:47:09;;;;;;;1.7;1.3;;;;;;;13.93;96.29395;938.68;;;;
2021/07/16 00:49:34;;;;;;;2.9;1;;;;;;;13.93;96.03906;938.5775;;;;
2021/07/16 00:52:01;;;;;;;2.1;1;;;;;;;13.92;96.64746;938.6008;;;;
2021/07/16 00:54:27;;;;;;;1.5;1;;;;;;;13.91;96.85254;938.6241;;;;
2021/07/16 00:56:53;;;;;;;3.2;1.2;;;;;;;13.89;97.07813;938.5905;;;;
2021/07/16 00:59:18;;;;;;;1.1;1;;;;;;;13.88;96.90137;938.4969;;;;
2021/07/16 01:01:45;;;;;;;3.1;2.1;;;;;;;13.84;97.03223;938.5073;;;;
2021/07/16 01:04:10;;;;;;;3.1;1.6;;;;;;;13.84;96.61914;938.5394;;;;
2021/07/16 01:06:36;;;;;;;4;1.6;;;;;;;13.81;96.2666;938.5192;;;;
2021/07/16 01:09:01;;;;;;;3.1;2;;;;;;;13.78;96.15723;938.5744;;;;
2021/07/16 01:11:29;;;;;;;3.7;1.7;;;;;;;13.8;96.24121;938.52;;;;
2021/07/16 01:13:54;;;;;;;3.2;1.9;;;;;;;13.89;96.31934;938.52;;;;
2021/07/16 01:16:25;;;;;;;2.1;1.6;;;;;;;13.84;96.53906;938.5426;;;;
2021/07/16 01:18:51;;;;;;;3.4;1.4;;;;;;;13.77;96.94629;938.5344;;;;
2021/07/16 01:21:17;;;;;;;3.1;1.4;;;;;;;13.7;97.48242;938.5234;;;;
2021/07/16 01:23:45;;;;;;;1.9;1.1;;;;;;;13.65;97.50684;938.4963;;;;
2021/07/16 01:26:10;;;;;;;2.5;1.5;;;;;;;13.68;97.3291;938.5427;;;;
2021/07/16 01:28:38;;;;;;;3.2;2.2;;;;;;;13.62;96.19922;938.5115;;;;
2021/07/16 01:31:03;;;;;;;3.7;2.1;;;;;;;13.59;96.05566;938.5505;;;;
2021/07/16 01:33:30;;;;;;;4.8;2.2;;;;;;;13.56;96.52148;938.5234;;;;
2021/07/16 01:35:55;;;;;;;2.5;1.8;;;;;;;13.59;96.65332;938.5553;;;;
2021/07/16 01:38:21;;;;;;;3.3;1.7;;;;;;;13.59;97.33203;938.4561;;;;
2021/07/16 01:40:47;;;;;;;4.5;1.8;;;;;;;13.63;97.45703;938.522;;;;
2021/07/16 01:43:13;;;;;;;3.5;2;;;;;;;13.66;97.69336;938.4931;;;;
2021/07/16 01:45:39;;;;;;;4.1;2.3;;;;;;;13.67;97.39844;938.4963;;;;
2021/07/16 01:48:04;;;;;;;3.6;1.9;;;;;;;13.68;97.05273;938.4906;;;;
2021/07/16 01:50:30;;;;;;;2.1;1.9;;;;;;;13.67;97.2373;938.4819;;;;
2021/07/16 01:52:58;;;;;;;3.2;2;;;;;;;13.69;97.17188;938.4506;;;;
2021/07/16 01:55:23;;;;;;;2.9;1.7;;;;;;;13.69;97.25293;938.441;;;;
2021/07/16 01:57:50;;;;;;;2.5;1.7;;;;;;;13.72;97.37402;938.3761;;;;
2021/07/16 02:00:15;;;;;;;1.8;1.5;;;;;;;13.75;97.13574;938.4064;;;;
2021/07/16 02:02:43;;;;;;;2.7;1.5;;;;;;;13.81;97.02344;938.3823;;;;
2021/07/16 02:05:08;;;;;;;2.4;1.1;;;;;;;13.81;97.52051;938.3535;;;;
2021/07/16 02:07:35;;;;;;;3.4;1.4;;;;;;;13.82;97.49902;938.375;;;;
2021/07/16 02:10:00;;;;;;;2.6;1.3;;;;;;;13.83;96.58105;938.3457;;;;
2021/07/16 02:12:28;;;;;;;3;1.2;;;;;;;13.79;96.71094;938.4008;;;;
2021/07/16 02:14:53;;;;;;;3.3;1;;;;;;;13.79;96.9502;938.4136;;;;
2021/07/16 02:17:18;;;;;;;4;1.3;;;;;;;13.67;97.45605;938.4099;;;;
2021/07/16 02:19:43;;;;;;;2.5;1.3;;;;;;;13.69;97.31055;938.3946;;;;
2021/07/16 02:22:10;;;;;;;1.6;1.3;;;;;;;13.64;97.20605;938.3651;;;;
2021/07/16 02:24:35;;;;;;;2.6;1.2;;;;;;;13.58;97.56152;938.3033;;;;
2021/07/16 02:27:01;;;;;;;1.8;1.3;;;;;;;13.55;97.7627;938.3498;;;;
2021/07/16 02:29:26;;;;;;;1.4;1.2;;;;;;;13.52;97.82129;938.2619;;;;
2021/07/16 02:31:52;;;;;;;1.3;1.2;;;;;;;13.53;97.8252;938.3138;;;;
2021/07/16 02:34:18;;;;;;;1.6;1.1;;;;;;;13.52;97.96191;938.3434;;;;
2021/07/16 02:36:44;;;;;;;1.2;1.1;;;;;;;13.52;98.37305;938.3066;;;;
2021/07/16 02:39:09;;;;;;;1.8;1.2;;;;;;;13.46;98.64844;938.3059;;;;
2021/07/16 02:41:35;;;;;;;2.3;1.4;;;;;;;13.48;98.39941;938.2859;;;;
2021/07/16 02:44:00;;;;;;;1.7;1.2;;;;;;;13.45;98.47363;938.3116;;;;
2021/07/16 02:46:28;;;;;;;1.5;1.4;;;;;;;13.39;98.45996;938.3098;;;;
2021/07/16 02:48:53;;;;;;;1.5;1.4;;;;;;;13.38;98.76758;938.3514;;;;
2021/07/16 02:51:21;;;;;;;1.8;1.6;;;;;;;13.45;98.73633;938.3476;;;;
2021/07/16 02:53:46;;;;;;;1.6;1.4;;;;;;;13.43;98.50488;938.3212;;;;
2021/07/16 02:56:13;;;;;;;2.5;1.4;;;;;;;13.39;98.50586;938.2946;;;;
2021/07/16 02:58:39;;;;;;;1.8;1.5;;;;;;;13.32;98.69629;938.2947;;;;
2021/07/16 03:01:08;;;;;;;1.6;1.4;;;;;;;13.34;98.62207;938.3329;;;;
2021/07/16 03:03:33;;;;;;;2;1.3;;;;;;;13.33;98.53906;938.3098;;;;
2021/07/16 03:06:00;;;;;;;2.3;1.8;;;;;;;13.38;98.25098;938.397;;;;
2021/07/16 03:08:25;;;;;;;2.4;1.8;;;;;;;13.41;97.75293;938.4553;;;;
2021/07/16 03:10:54;;;;;;;2.7;1.7;;;;;;;13.45;97.39355;938.4836;;;;
2021/07/16 03:13:21;;;;;;;1.8;1.6;;;;;;;13.45;97.6123;938.5172;;;;
2021/07/16 03:15:59;;;;;;;4;2;;;;;;;13.4;97.88965;938.4921;;;;
2021/07/16 03:18:30;;;;;;;2.7;2.1;;;;;;;13.44;97.70215;938.4572;;;;
2021/07/16 03:20:59;;;;;;;1.9;1.7;;;;;;;13.47;96.91309;938.4067;;;;
2021/07/16 03:23:24;;;;;;;2.8;1.7;;;;;;;13.51;96.86719;938.4139;;;;
2021/07/16 03:25:55;;;;;;;2;1.7;;;;;;;13.5;96.95508;938.4147;;;;
2021/07/16 03:28:23;;;;;;;1.8;1.6;;;;;;;13.44;96.50684;938.53;;;;
2021/07/16 03:30:49;;;;;;;4.1;2.2;;;;;;;13.42;96.4541;938.5549;;;;
2021/07/16 03:33:18;;;;;;;4;1.6;;;;;;;13.36;96.39648;938.573;;;;
2021/07/16 03:35:43;;;;;;;2.7;1.8;;;;;;;13.39;96.97949;938.5505;;;;
2021/07/16 03:38:10;;;;;;;1.2;1;;;;;;;13.25;98.0498;938.593;;;;
2021/07/16 03:40:35;;;;;;;1.5;1;;;;;;;13.05;99.07129;938.5636;;;;
2021/07/16 03:43:03;;;;;;;1.7;0.9;;;;;;;12.99;99.27539;938.5266;;;;
2021/07/16 03:45:28;;;;;;;3.4;1.2;;;;;;;13.04;98.69238;938.4861;;;;
2021/07/16 03:47:57;;;;;;;2.7;1.3;;;;;;;13.06;98.48926;938.5309;;;;
2021/07/16 03:50:22;;;;;;;2.3;1.4;;;;;;;13.09;98.3252;938.55;;;;
2021/07/16 03:52:51;;;;;;;3.1;1.3;;;;;;;13.09;98.2793;938.5789;;;;
2021/07/16 03:55:16;;;;;;;2.9;1.3;;;;;;;13.06;97.83301;938.5796;;;;
2021/07/16 03:57:45;;;;;;;2.3;1.3;;;;;;;12.89;98.56738;938.5984;;;;
2021/07/16 04:00:11;;;;;;;5.3;1.4;;;;;;;12.91;98.40918;938.6264;;;;
2021/07/16 04:02:43;;;;;;;3.9;1.8;;;;;;;12.98;97.9541;938.5856;;;;
2021/07/16 04:05:08;;;;;;;4.3;1.8;;;;;;;13;97.52246;938.7192;;;;
2021/07/16 04:07:35;;;;;;;2.1;1.5;;;;;;;13.09;97.30176;938.726;;;;
2021/07/16 04:09:58;;;;;;;2.5;1.8;;;;;;;13.1;97.54688;938.7555;;;;
2021/07/16 04:12:24;;;;;;;2.6;1.7;;;;;;;13.04;97.70508;938.7515;;;;
2021/07/16 04:14:53;;;;;;;2.8;1.6;;;;;;;12.9;98.72852;938.7631;;;;
2021/07/16 04:17:18;;;;;;;4.3;2;;;;;;;12.82;98.78125;938.7422;;;;
2021/07/16 04:19:45;;;;;;;3.2;1.4;;;;;;;12.76;99.15625;938.8752;;;;
2021/07/16 04:22:10;;;;;;;4.2;1.7;;;;;;;12.72;99.8252;938.9359;;;;
2021/07/16 04:24:41;;;;;;;2.6;1.4;;;;;;;12.85;99.53125;938.9539;;;;
2021/07/16 04:27:12;;;;;;;3.5;1.8;;;;;;;12.95;98.69434;938.9389;;;;
2021/07/16 04:29:42;;;;;;;3;1.6;;;;;;;12.94;98.58691;938.9445;;;;
2021/07/16 04:32:07;;;;;;;1.7;1.5;;;;;;;12.82;98.80176;938.9236;;;;
2021/07/16 04:34:36;;;;;;;2;1.8;;;;;;;13.06;98.31543;938.8506;;;;
2021/07/16 04:37:07;;;;;;;2.1;1.4;;;;;;;13.26;97.21289;938.8937;;;;
2021/07/16 04:39:37;;;;;;;2.3;1.7;;;;;;;13.28;96.72559;938.8713;;;;
2021/07/16 04:42:02;;;;;;;4.2;2.1;;;;;;;13.3;96.18945;938.9392;;;;
2021/07/16 04:44:31;;;;;;;3.1;1.9;;;;;;;13.43;96.28613;938.878;;;;
2021/07/16 04:47:00;;;;;;;2.2;1.8;;;;;;;13.58;95.52637;938.8466;;;;
2021/07/16 04:49:25;;;;;;;1.7;1.6;;;;;;;13.63;94.51074;938.91;;;;
2021/07/16 04:51:53;;;;;;;1.7;1.6;;;;;;;13.4;95.5791;938.8689;;;;
2021/07/16 04:54:18;;;;;;;2.8;1.7;;;;;;;13.57;95.41895;938.861;;;;
2021/07/16 04:56:45;;;;;;;1.9;1.5;;;;;;;13.57;95.00488;938.869;;;;
2021/07/16 04:59:10;;;;;;;2.2;1.8;;;;;;;13.62;95.07227;938.9188;;;;
2021/07/16 05:01:37;;;;;;;2.4;1.7;;;;;;;13.67;94.6709;938.8964;;;;
2021/07/16 05:04:02;;;;;;;1.8;1.6;;;;;;;13.7;94.25293;938.8883;;;;
2021/07/16 05:06:30;;;;;;;3.6;1.7;;;;;;;13.73;93.6377;938.8491;;;;
2021/07/16 05:08:59;;;;;;;2.8;1.8;;;;;;;13.8;93.77734;938.7792;;;;
2021/07/16 05:11:24;;;;;;;3;1.9;;;;;;;13.91;93.56152;938.853;;;;
2021/07/16 05:13:54;;;;;;;3.4;1.8;;;;;;;14.64;91.99902;938.8557;;;;
2021/07/16 05:16:23;;;;;;;3;2;;;;;;;15.98;85.20898;938.791;;;;
2021/07/16 05:18:50;;;;;;;4.5;1.6;;;;;;;17.51;77.44238;938.6917;;;;
2021/07/16 05:21:18;;;;;;;3.1;1.1;;;;;;;18.54;71.09863;938.7162;;;;
2021/07/16 05:23:44;;;;;;;2.7;0.9;;;;;;;19.46;68.60156;938.6523;;;;
2021/07/16 05:26:11;;;;;;;1;0.7;;;;;;;20.16;65.20996;938.6298;;;;
2021/07/16 05:28:36;;;;;;;2.3;0.8;;;;;;;20.56;63.36523;938.6351;;;;
2021/07/16 05:31:04;;;;;;;0.9;0.7;;;;;;;19.31;67.18164;938.7048;;;;
2021/07/16 05:33:29;;;;;;;1;0.8;;;;;;;20.8;62.74414;938.6479;;;;
2021/07/16 05:35:56;;;;;;;0.6;0.5;;;;;;;21.06;61.83398;938.6375;;;;
2021/07/16 05:38:22;;;;;;;0.7;0.5;;;;;;;21.07;60.28125;938.6121;;;;
2021/07/16 05:40:49;;;;;;;1.6;0.6;;;;;;;20.09;64.5459;938.6852;;;;
2021/07/16 05:43:14;;;;;;;0.7;0.5;;;;;;;21.66;59.68164;938.7106;;;;
2021/07/16 05:45:44;;;;;;;1.3;0.6;;;;;;;20.39;63.45605;938.7302;;;;
2021/07/16 05:48:10;;;;;;;0.9;0.5;;;;;;;21.96;60.08496;938.6928;;;;
2021/07/16 05:50:36;;;;;;;2.9;0.6;;;;;;;21.06;59.06152;938.6588;;;;
2021/07/16 05:53:02;;;;;;;1.9;0.4;;;;;;;22.42;57.07422;938.7353;;;;
2021/07/16 05:55:30;;;;;;;1.4;0.7;;;;;;;23.29;55.7041;938.7316;;;;
2021/07/16 05:57:54;;;;;;;1.2;0.6;;;;;;;25.14;49.62012;938.7654;;;;
2021/07/16 06:00:21;;;;;;;0.4;0.4;;;;;;;25.67;48.99414;938.7586;;;;
2021/07/16 06:02:46;;;;;;;0.9;0.6;;;;;;;25.26;48.11133;938.7314;;;;
2021/07/16 06:05:14;;;;;;;0.9;0.5;;;;;;;25.49;47.69824;938.7921;;;;
2021/07/16 06:07:40;;;;;;;0.6;0.6;;;;;;;25.35;48.27441;938.849;;;;
2021/07/16 06:10:06;;;;;;;1.9;0.7;;;;;;;25.12;48.23828;938.8314;;;;
2021/07/16 06:12:31;;;;;;;0.8;0.7;;;;;;;25.99;47.39746;938.8215;;;;
2021/07/16 06:14:59;;;;;;;0.7;0.6;;;;;;;25.27;50.13086;938.7883;;;;
2021/07/16 06:17:24;;;;;;;1.5;0.7;;;;;;;25.48;50.19043;938.8314;;;;
2021/07/16 06:19:53;;;;;;;1.3;0.5;;;;;;;25.04;49.79883;938.8465;;;;
2021/07/16 06:22:23;;;;;;;1.8;0.5;;;;;;;26.75;46.39844;938.8705;;;;
2021/07/16 06:24:48;;;;;;;0.5;0.5;;;;;;;24.86;50.17871;938.8258;;;;
2021/07/16 06:27:15;;;;;;;0.8;0.5;;;;;;;26.64;46.19922;938.8348;;;;
2021/07/16 06:29:40;;;;;;;2.9;0.7;;;;;;;26.86;43.08105;938.8517;;;;
2021/07/16 06:32:10;;;;;;;1.2;0.8;;;;;;;27.66;41.75781;938.8376;;;;
2021/07/16 06:34:41;;;;;;;1.3;0.7;;;;;;;28.4;40.25684;938.8497;;;;
2021/07/16 06:37:06;;;;;;;0.8;0.6;;;;;;;26.81;43.34961;938.8987;;;;
2021/07/16 06:39:33;;;;;;;0.7;0.6;;;;;;;27.22;43.6377;938.94;;;;
2021/07/16 06:41:58;;;;;;;0.9;0.8;;;;;;;27.27;44.52051;938.93;;;;
2021/07/16 06:44:23;;;;;;;1.1;0.9;;;;;;;26.73;43.83887;938.9285;;;;
2021/07/16 06:46:48;;;;;;;2.1;0.7;;;;;;;28.34;40.63184;938.9743;;;;
2021/07/16 06:49:14;;;;;;;1.8;0.7;;;;;;;28.14;41.73047;938.9321;;;;
2021/07/16 06:51:42;;;;;;;0.7;0.5;;;;;;;29.86;38.80078;938.9972;;;;
2021/07/16 06:54:07;;;;;;;1.3;0.6;;;;;;;28.13;43.88086;939.0005;;;;
2021/07/16 06:56:43;;;;;;;0.3;0.3;;;;;;;27.44;44.0752;938.9761;;;;
2021/07/16 06:59:12;;;;;;;0.8;0.6;;;;;;;29.07;40.38867;938.9869;;;;
2021/07/16 07:01:35;;;;;;;0.8;0.7;;;;;;;29.76;37.80273;939.0491;;;;
2021/07/16 07:04:03;;;;;;;0.7;0.5;;;;;;;29.52;39.40332;939.0679;;;;
2021/07/16 07:06:28;;;;;;;0.8;0.6;;;;;;;29.59;39.4209;939.0709;;;;
2021/07/16 07:08:54;;;;;;;0.7;0.6;;;;;;;30.06;38.43555;939.0661;;;;
2021/07/16 07:11:19;;;;;;;1;0.5;;;;;;;30.32;39.5459;939.0818;;;;
2021/07/16 07:13:47;;;;;;;1.2;0.5;;;;;;;28.49;41.56152;939.1138;;;;
2021/07/16 07:16:16;;;;;;;0.6;0.6;;;;;;;27.81;43.87305;939.1625;;;;
2021/07/16 07:18:45;;;;;;;0.7;0.6;;;;;;;27.36;41.54004;939.155;;;;
2021/07/16 07:21:10;;;;;;;0.9;0.5;;;;;;;28.5;42.96582;939.1403;;;;
2021/07/16 07:23:35;;;;;;;2.1;0.4;;;;;;;28.94;41.93652;939.1355;;;;
2021/07/16 07:26:03;;;;;;;1;0.4;;;;;;;30.16;37.31152;939.1175;;;;
2021/07/16 07:28:32;;;;;;;0.9;0.4;;;;;;;30.77;35.61621;939.1306;;;;
2021/07/16 07:30:57;;;;;;;0.5;0.5;;;;;;;30.85;36.60254;939.1122;;;;
2021/07/16 07:33:26;;;;;;;1.4;0.3;;;;;;;30.81;35.98926;939.1617;;;;
2021/07/16 07:35:51;;;;;;;0.7;0.3;;;;;;;32.42;33.91016;939.1722;;;;
2021/07/16 07:38:17;;;;;;;1.1;0.4;;;;;;;33.23;31.30273;939.1407;;;;
2021/07/16 07:40:42;;;;;;;0.3;0.3;;;;;;;33.07;30.47559;939.0677;;;;
2021/07/16 07:43:09;;;;;;;0.5;0.3;;;;;;;33.55;30.02637;939.1005;;;;
2021/07/16 07:45:34;;;;;;;0.4;0.4;;;;;;;33.3;30.40723;939.1124;;;;
2021/07/16 07:47:59;;;;;;;0.9;0.3;;;;;;;33.76;29.22266;939.1592;;;;
2021/07/16 07:50:26;;;;;;;1.4;0.4;;;;;;;32.3;32.66602;939.1292;;;;
2021/07/16 07:52:51;;;;;;;0.7;0.4;;;;;;;33.34;32.16406;939.0963;;;;
2021/07/16 07:55:18;;;;;;;1.1;0.5;;;;;;;33.69;32.7666;939.0932;;;;
2021/07/16 07:57:43;;;;;;;0.5;0.4;;;;;;;30.94;36.25098;939.1747;;;;
2021/07/16 08:00:15;;;;;;;1.7;0.5;;;;;;;31.06;37.48047;939.2439;;;;
2021/07/16 08:02:43;;;;;;;0.8;0.3;;;;;;;30.39;34.71582;939.223;;;;
2021/07/16 08:05:08;;;;;;;0.8;0.4;;;;;;;29.33;36.89648;939.2051;;;;
2021/07/16 08:07:36;;;;;;;1.3;0.3;;;;;;;28.73;39.89258;939.265;;;;
2021/07/16 08:10:01;;;;;;;1;0.2;;;;;;;29.9;37.45605;939.2563;;;;
2021/07/16 08:12:28;;;;;;;0.7;0.3;;;;;;;28.74;39.65723;939.2664;;;;
2021/07/16 08:14:53;;;;;;;0.5;0.4;;;;;;;29.74;36.72754;939.3095;;;;
2021/07/16 08:17:19;;;;;;;1.1;0.4;;;;;;;29.59;37.68164;939.2653;;;;
2021/07/16 08:19:46;;;;;;;1.4;0.5;;;;;;;29.01;41.76367;939.2797;;;;
2021/07/16 08:22:11;;;;;;;0.9;0.5;;;;;;;29.27;41.75195;939.2486;;;;
2021/07/16 08:24:39;;;;;;;1;0.5;;;;;;;27.61;42.27539;939.2695;;;;
2021/07/16 08:27:04;;;;;;;0.6;0.4;;;;;;;25.86;48.23535;939.2653;;;;
2021/07/16 08:29:32;;;;;;;0.3;0.3;;;;;;;27.63;45.19727;939.2082;;;;
2021/07/16 08:31:57;;;;;;;0.5;0.3;;;;;;;26.18;45.84277;939.2249;;;;
2021/07/16 08:34:24;;;;;;;0.4;0.4;;;;;;;27.41;45.15137;939.2972;;;;
2021/07/16 08:36:49;;;;;;;0.5;0.5;;;;;;;27.09;44.94141;939.2961;;;;
2021/07/16 08:39:17;;;;;;;0.6;0.6;;;;;;;26.85;48.33984;939.2357;;;;
2021/07/16 08:41:42;;;;;;;0.9;0.4;;;;;;;26.44;50.56934;939.2609;;;;
2021/07/16 08:44:08;;;;;;;1.4;0.4;;;;;;;27.6;45.62109;939.2594;;;;
2021/07/16 08:46:33;;;;;;;1.9;0.5;;;;;;;26.06;49.08398;939.23;;;;
2021/07/16 08:49:00;;;;;;;1.6;0.6;;;;;;;26.24;47.54102;939.3201;;;;
2021/07/16 08:51:25;;;;;;;0.6;0.5;;;;;;;26.41;49.6543;939.3405;;;;
2021/07/16 08:53:54;;;;;;;0.6;0.6;;;;;;;26.35;49.69629;939.3686;;;;
2021/07/16 08:56:18;;;;;;;0.7;0.7;;;;;;;24.49;55.1123;939.378;;;;
2021/07/16 08:58:47;;;;;;;0.8;0.6;;;;;;;23.9;56.65039;939.4852;;;;
2021/07/16 09:01:12;;;;;;;0.5;0.5;;;;;;;24.61;51.7666;939.4796;;;;
2021/07/16 09:03:38;;;;;;;1.7;0.4;;;;;;;25.4;51.00684;939.4966;;;;
2021/07/16 09:06:12;;;;;;;0.7;0.3;;;;;;;25.87;50.83691;939.5503;;;;
2021/07/16 09:08:30;;;;;;;1;0.4;;;;;;;24.97;52.09082;939.5908;;;;
2021/07/16 09:10:55;;;;;;;0.6;0.4;;;;;;;24.11;56.38281;939.6386;;;;
2021/07/16 09:13:20;;;;;;;0.9;0.5;;;;;;;23.28;59.22949;939.6298;;;;
2021/07/16 09:15:52;;;;;;;1;0.5;;;;;;;21.98;60.84961;939.6756;;;;
2021/07/16 09:18:21;;;;;;;1.6;0.6;;;;;;;22.04;61.03223;939.6646;;;;
2021/07/16 09:20:43;;;;;;;0.4;0.4;;;;;;;21.65;61.4375;939.655;;;;
2021/07/16 09:23:09;;;;;;;1;0.6;;;;;;;21.68;62.53027;939.6266;;;;
2021/07/16 09:25:39;;;;;;;0.5;0.5;;;;;;;21.59;62.48145;939.6438;;;;
2021/07/16 09:28:04;;;;;;;1.1;0.5;;;;;;;21.41;62.80859;939.7299;;;;
2021/07/16 09:30:35;;;;;;;0.7;0.5;;;;;;;21.17;62.88965;939.7787;;;;
2021/07/16 09:32:59;;;;;;;0.8;0.4;;;;;;;21.13;63.27051;939.8178;;;;
2021/07/16 09:35:27;;;;;;;1.8;0.7;;;;;;;20.82;65.82129;939.8373;;;;
2021/07/16 09:37:56;;;;;;;0.9;0.5;;;;;;;20.47;66.72852;939.8552;;;;
2021/07/16 09:40:21;;;;;;;1.5;0.5;;;;;;;20.39;66.54102;939.9052;;;;
2021/07/16 09:42:48;;;;;;;1;0.6;;;;;;;20.44;67.13184;940.0172;;;;
2021/07/16 09:45:13;;;;;;;0.4;0.4;;;;;;;20.45;67.12109;940.0095;;;;
2021/07/16 09:47:39;;;;;;;1;0.6;;;;;;;20.41;67.78125;939.9932;;;;
2021/07/16 09:50:04;;;;;;;0.6;0.5;;;;;;;20.2;70.3877;939.9792;;;;
2021/07/16 09:52:29;;;;;;;0.9;0.6;;;;;;;20.36;70.16797;940.0257;;;;
2021/07/16 09:54:54;;;;;;;1.7;0.8;;;;;;;20.23;69.2832;940.0242;;;;
2021/07/16 09:57:19;;;;;;;1;0.8;;;;;;;20.4;67.87305;940.0352;;;;
2021/07/16 09:59:44;;;;;;;0.8;0.7;;;;;;;20.59;68.7207;940.0058;;;;
2021/07/16 10:02:12;;;;;;;0.6;0.6;;;;;;;20.73;68.09863;939.9717;;;;
2021/07/16 10:04:37;;;;;;;1;0.8;;;;;;;20.59;70.47266;939.9905;;;;
2021/07/16 10:07:02;;;;;;;0.9;0.7;;;;;;;20.68;69.5625;940.0086;;;;
2021/07/16 10:09:28;;;;;;;0.6;0.6;;;;;;;20.72;68.48242;940.0172;;;;
2021/07/16 10:11:53;;;;;;;1;0.8;;;;;;;20.67;70.05371;940.0073;;;;
2021/07/16 10:14:21;;;;;;;2.6;0.7;;;;;;;20.71;69.43945;939.9852;;;;
2021/07/16 10:16:53;;;;;;;1.2;0.7;;;;;;;20.75;69.30469;940.0375;;;;
2021/07/16 10:19:21;;;;;;;0.8;0.7;;;;;;;20.35;70.62207;940.0056;;;;
2021/07/16 10:21:45;;;;;;;1.8;0.7;;;;;;;20.4;69.22656;939.9998;;;;
2021/07/16 10:24:10;;;;;;;1.6;0.7;;;;;;;20.42;72.13867;939.9769;;;;
2021/07/16 10:26:36;;;;;;;1;0.9;;;;;;;20.37;70.60059;939.9875;;;;
2021/07/16 10:29:03;;;;;;;1.2;0.8;;;;;;;20.72;69.35938;939.9508;;;;
2021/07/16 10:31:28;;;;;;;1.1;0.8;;;;;;;20.87;71.06641;939.9843;;;;
2021/07/16 10:33:53;;;;;;;1.6;0.8;;;;;;;21;69.46191;939.9573;;;;
2021/07/16 10:36:19;;;;;;;1.6;0.8;;;;;;;20.9;67.7627;939.8563;;;;
2021/07/16 10:38:46;;;;;;;0.6;0.6;;;;;;;20.89;67.49219;939.8331;;;;
2021/07/16 10:41:11;;;;;;;1;0.8;;;;;;;21.2;67.54004;939.7324;;;;
2021/07/16 10:43:40;;;;;;;1.1;1;;;;;;;21.29;66.33594;939.685;;;;
2021/07/16 10:46:03;;;;;;;0.8;0.5;;;;;;;21.28;64.83691;939.6658;;;;
2021/07/16 10:48:31;;;;;;;1.1;0.5;;;;;;;21.26;65.54785;939.6843;;;;
2021/07/16 10:50:53;;;;;;;1.7;0.7;;;;;;;21.06;65.85645;939.6984;;;;
2021/07/16 10:53:22;;;;;;;1;0.7;;;;;;;20.93;67.04297;939.7113;;;;
2021/07/16 10:55:51;;;;;;;1.5;0.8;;;;;;;21.06;67.01563;939.7048;;;;
2021/07/16 10:58:16;;;;;;;0.6;0.6;;;;;;;21.03;68.33301;939.6853;;;;
2021/07/16 11:00:45;;;;;;;1;0.9;;;;;;;21.36;67.71582;939.7104;;;;
2021/07/16 11:03:25;;;;;;;0.6;0.6;;;;;;;21.98;64.55273;939.7211;;;;
2021/07/16 11:05:58;;;;;;;1.6;0.6;;;;;;;22.67;60.9668;939.7514;;;;
2021/07/16 11:08:27;;;;;;;0.8;0.7;;;;;;;23.3;54.77539;939.7999;;;;
2021/07/16 11:10:54;;;;;;;0.3;0.3;;;;;;;23.3;55.44629;939.7924;;;;
2021/07/16 11:13:20;;;;;;;0.7;0.6;;;;;;;23.09;60.5791;939.7414;;;;
2021/07/16 11:15:49;;;;;;;1.7;0.6;;;;;;;23.9;55.14551;939.69;;;;
2021/07/16 11:18:18;;;;;;;0.7;0.5;;;;;;;24.19;51.84668;939.725;;;;
2021/07/16 11:20:46;;;;;;;0.5;0.5;;;;;;;24.02;52.69922;939.69;;;;
2021/07/16 11:23:11;;;;;;;1;0.6;;;;;;;24.55;51.90039;939.6727;;;;
2021/07/16 11:25:38;;;;;;;1.4;0.5;;;;;;;24.71;52.39258;939.6463;;;;
2021/07/16 11:28:06;;;;;;;1.2;0.7;;;;;;;24.69;50.70313;939.6064;;;;
2021/07/16 11:30:36;;;;;;;0.8;0.5;;;;;;;24.91;50.71582;939.6219;;;;
2021/07/16 11:33:02;;;;;;;0.3;0.3;;;;;;;23.89;55.70801;939.6041;;;;
2021/07/16 11:35:31;;;;;;;0.8;0.5;;;;;;;23.74;53.71191;939.6311;;;;
2021/07/16 11:37:59;;;;;;;0.6;0.5;;;;;;;23.16;56.04004;939.6145;;;;
2021/07/16 11:40:27;;;;;;;2.4;0.5;;;;;;;23.57;54.73828;939.6066;;;;
2021/07/16 11:42:53;;;;;;;0.6;0.6;;;;;;;24.03;54.87891;939.6234;;;;
2021/07/16 11:45:19;;;;;;;0.9;0.5;;;;;;;23.54;56.91113;939.574;;;;
2021/07/16 11:47:44;;;;;;;1;0.5;;;;;;;23.24;58.00195;939.5475;;;;
2021/07/16 11:50:12;;;;;;;1.5;0.6;;;;;;;22.91;59.00391;939.5626;;;;
2021/07/16 11:52:37;;;;;;;0.5;0.5;;;;;;;22.19;59.69238;939.4888;;;;
2021/07/16 11:55:02;;;;;;;0.8;0.6;;;;;;;22.89;58.26172;939.4827;;;;
2021/07/16 11:57:27;;;;;;;1.1;0.5;;;;;;;22.7;59.62109;939.4405;;;;
2021/07/16 11:59:54;;;;;;;0.5;0.5;;;;;;;22.95;58.58594;939.3708;;;;
2021/07/16 12:02:19;;;;;;;0.9;0.5;;;;;;;22.91;59.14453;939.4267;;;;
2021/07/16 12:04:47;;;;;;;1.1;0.6;;;;;;;22.96;59.56152;939.3797;;;;
2021/07/16 12:07:12;;;;;;;0.9;0.6;;;;;;;23.31;58.17578;939.4019;;;;
2021/07/16 12:09:39;;;;;;;0.4;0.4;;;;;;;23.67;56.83398;939.3295;;;;
2021/07/16 12:12:04;;;;;;;0.5;0.5;;;;;;;23.15;58.25977;939.3322;;;;
2021/07/16 12:14:29;;;;;;;0.8;0.6;;;;;;;23.43;58.63574;939.3084;;;;
2021/07/16 12:17:02;;;;;;;0.5;0.5;;;;;;;23.53;57.14551;939.2578;;;;
2021/07/16 12:19:46;;;;;;;0.9;0.5;;;;;;;23.56;54.80762;939.2099;;;;
2021/07/16 12:22:06;;;;;;;1.4;0.7;;;;;;;23.83;55.26465;939.2299;;;;
2021/07/16 12:24:32;;;;;;;0.9;0.4;;;;;;;24.14;51.44043;939.2047;;;;
2021/07/16 12:27:00;;;;;;;1;0.6;;;;;;;24.19;52.23535;939.2195;;;;
2021/07/16 12:29:26;;;;;;;0.7;0.6;;;;;;;24.4;52.96777;939.1844;;;;
2021/07/16 12:31:51;;;;;;;1.1;0.6;;;;;;;24.99;51.66992;939.2371;;;;
2021/07/16 12:34:18;;;;;;;0.6;0.6;;;;;;;25.24;52.39355;939.2584;;;;
2021/07/16 12:36:44;;;;;;;0.7;0.6;;;;;;;25.17;48.98633;939.2009;;;;
2021/07/16 12:39:11;;;;;;;0.9;0.5;;;;;;;24.8;50.99805;939.2436;;;;
2021/07/16 12:41:36;;;;;;;0.5;0.5;;;;;;;24.94;49.7627;939.3021;;;;
2021/07/16 12:44:01;;;;;;;0.6;0.6;;;;;;;24.55;50.72168;939.2623;;;;
2021/07/16 12:46:27;;;;;;;0.6;0.5;;;;;;;24.38;52.0459;939.2392;;;;
2021/07/16 12:48:56;;;;;;;0.9;0.5;;;;;;;23.7;54.02539;939.2684;;;;
2021/07/16 12:51:20;;;;;;;1.1;0.5;;;;;;;23.74;58.80859;939.3137;;;;
2021/07/16 12:53:45;;;;;;;0.7;0.5;;;;;;;24.11;53.01465;939.2262;;;;
2021/07/16 12:56:13;;;;;;;1.6;0.5;;;;;;;24.48;55.0752;939.2269;;;;
2021/07/16 12:58:38;;;;;;;1.3;0.7;;;;;;;24.85;52.46582;939.204;;;;
2021/07/16 13:01:04;;;;;;;1;0.6;;;;;;;24.69;53.5332;939.293;;;;
2021/07/16 13:03:30;;;;;;;0.7;0.4;;;;;;;25.1;51.19727;939.2383;;;;
2021/07/16 13:05:57;;;;;;;0.4;0.4;;;;;;;25.44;48.44922;939.193;;;;
2021/07/16 13:08:22;;;;;;;0.7;0.5;;;;;;;25.61;45.27734;939.1199;;;;
2021/07/16 13:10:55;;;;;;;0.5;0.5;;;;;;;25.92;45.93555;939.1702;;;;
2021/07/16 13:13:20;;;;;;;0.6;0.4;;;;;;;26.01;44.72656;939.1258;;;;
2021/07/16 13:15:56;;;;;;;0.8;0.4;;;;;;;24.62;49.28027;939.1337;;;;
2021/07/16 13:18:21;;;;;;;1.4;0.5;;;;;;;24.46;52.16113;939.2142;;;;
2021/07/16 13:20:53;;;;;;;0.5;0.5;;;;;;;24.52;51.7793;939.2553;;;;
2021/07/16 13:23:20;;;;;;;0.6;0.5;;;;;;;24.6;51.24707;939.2925;;;;
2021/07/16 13:25:45;;;;;;;0.8;0.7;;;;;;;24.15;52.1709;939.3533;;;;
2021/07/16 13:28:13;;;;;;;0.6;0.6;;;;;;;23.52;53.875;939.3128;;;;
2021/07/16 13:30:38;;;;;;;1.1;0.6;;;;;;;23.51;54.56738;939.3717;;;;
2021/07/16 13:33:07;;;;;;;0.5;0.5;;;;;;;23.18;55.4082;939.3829;;;;
2021/07/16 13:35:32;;;;;;;0.5;0.5;;;;;;;22.97;55.6748;939.4077;;;;
2021/07/16 13:37:59;;;;;;;0.8;0.6;;;;;;;22.87;56.17969;939.3981;;;;
2021/07/16 13:40:24;;;;;;;1.3;0.5;;;;;;;22.78;56.50977;939.4023;;;;
2021/07/16 13:42:50;;;;;;;0.9;0.6;;;;;;;22.72;58.06152;939.4226;;;;
2021/07/16 13:45:16;;;;;;;1.6;0.8;;;;;;;22.56;58.41602;939.4369;;;;
2021/07/16 13:47:43;;;;;;;1.3;0.7;;;;;;;22.37;61.4541;939.5087;;;;
2021/07/16 13:50:09;;;;;;;1.6;0.8;;;;;;;22.24;63.37109;939.5261;;;;
2021/07/16 13:52:39;;;;;;;1;0.7;;;;;;;21.77;64.41602;939.5461;;;;
2021/07/16 13:55:15;;;;;;;1.8;0.8;;;;;;;21.37;67.02637;939.4792;;;;
2021/07/16 13:57:40;;;;;;;1.8;0.7;;;;;;;21.11;69.26758;939.5122;;;;
2021/07/16 14:00:07;;;;;;;1.2;0.6;;;;;;;21.12;69.14063;939.5072;;;;
2021/07/16 14:02:34;;;;;;;0.5;0.5;;;;;;;21.01;67.07715;939.5125;;;;
2021/07/16 14:04:58;;;;;;;1.2;0.6;;;;;;;21.36;67.18945;939.5234;;;;
2021/07/16 14:07:24;;;;;;;0.5;0.5;;;;;;;21.42;63.7793;939.5239;;;;
2021/07/16 14:09:51;;;;;;;0.7;0.5;;;;;;;21.45;61.95703;939.512;;;;
2021/07/16 14:12:17;;;;;;;1.8;0.7;;;;;;;21.62;62.43945;939.4677;;;;
2021/07/16 14:14:46;;;;;;;0.7;0.6;;;;;;;21.95;63.80957;939.5317;;;;
2021/07/16 14:17:07;;;;;;;0.6;0.6;;;;;;;22.01;64.60352;939.5298;;;;
2021/07/16 14:19:33;;;;;;;0.7;0.6;;;;;;;22.01;63.37305;939.4746;;;;
2021/07/16 14:21:59;;;;;;;0.6;0.6;;;;;;;22.41;62.55078;939.4342;;;;